Time;durP1;ratioP1;P1;durP2;ratioP2;P2;SDS_P1;SDS_P2;PMS_P1;PMS_P2;Temp;Humidity;BMP_temperature;BMP_pressure;BME280_temperature;BME280_humidity;BME280_pressure;Samples;Min_cycle;Max_cycle;Signal;HPM_P1;HPM_P2
2022/03/01 00:01:09;;;;;;;37.50;18.70;;;;;;;-2.68;71.05;100506.95;218637;1276;26760;-66
2022/03/01 00:06:12;;;;;;;45.20;19.60;;;;;;;-2.70;71.05;100510.67;218632;1276;25641;-68
2022/03/01 00:11:15;;;;;;;42.30;19.70;;;;;;;-2.74;71.16;100512.77;218762;1276;26652;-67
2022/03/01 00:16:19;;;;;;;51.40;22.40;;;;;;;-2.75;71.20;100513.61;219145;1276;26210;-66
2022/03/01 00:21:22;;;;;;;50.40;21.40;;;;;;;-2.71;71.32;100512.38;218781;1276;24248;-67
2022/03/01 00:26:25;;;;;;;45.40;21.60;;;;;;;-2.73;71.31;100509.36;218642;1276;24210;-67
2022/03/01 00:31:27;;;;;;;50.20;21.80;;;;;;;-2.75;71.36;100507.09;218564;1276;22547;-67
2022/03/01 00:36:41;;;;;;;57.00;23.60;;;;;;;-2.81;71.29;100503.00;218660;1276;24254;-68
2022/03/01 00:41:46;;;;;;;53.40;23.10;;;;;;;-2.88;71.50;100508.41;218557;1276;22603;-68
2022/03/01 00:52:54;;;;;;;;;;;;;;;;;;;;;
2022/03/01 00:58:36;;;;;;;54.30;22.50;;;;;;;-3.20;71.85;100509.41;218652;1276;22864;-67
2022/03/01 01:03:43;;;;;;;56.30;23.10;;;;;;;-3.30;72.11;100508.45;218495;1276;22550;-68
2022/03/01 01:08:46;;;;;;;50.40;23.70;;;;;;;-3.36;72.26;100501.89;218521;1274;23956;-67
2022/03/01 01:13:48;;;;;;;45.50;21.30;;;;;;;-3.43;72.30;100507.52;218663;1276;24376;-67
2022/03/01 01:18:56;;;;;;;42.10;18.80;;;;;;;-3.51;72.48;100504.61;218808;1276;22604;-68
2022/03/01 01:23:59;;;;;;;48.80;21.50;;;;;;;-3.55;72.73;100509.79;218558;1276;22556;-68
2022/03/01 01:29:01;;;;;;;37.10;16.90;;;;;;;-3.55;73.00;100511.52;218796;1276;22625;-68
2022/03/01 01:34:04;;;;;;;46.20;19.70;;;;;;;-3.52;73.26;100510.70;218801;1276;22867;-68
2022/03/01 01:39:06;;;;;;;44.00;19.20;;;;;;;-3.51;73.15;100510.58;218795;1276;22827;-68
2022/03/01 01:44:08;;;;;;;36.10;18.00;;;;;;;-3.53;73.05;100513.23;218723;1276;22610;-68
2022/03/01 01:49:20;;;;;;;38.60;18.50;;;;;;;-3.57;73.27;100510.98;218512;1276;22539;-68
2022/03/01 01:54:23;;;;;;;43.80;19.00;;;;;;;-3.59;73.38;100506.18;218827;1276;22553;-69
2022/03/01 01:59:26;;;;;;;37.20;18.30;;;;;;;-3.61;73.34;100506.17;218558;1276;22793;-67
2022/03/01 02:04:28;;;;;;;45.40;21.20;;;;;;;-3.60;73.36;100509.43;218761;1276;22830;-67
2022/03/01 02:09:30;;;;;;;48.90;20.00;;;;;;;-3.59;73.44;100508.33;218677;1276;25656;-68
2022/03/01 02:14:37;;;;;;;40.50;20.00;;;;;;;-3.61;73.44;100506.36;218794;1276;24204;-67
2022/03/01 02:19:49;;;;;;;47.10;21.60;;;;;;;-3.66;73.46;100505.98;218857;1276;25431;-67
2022/03/01 02:24:54;;;;;;;48.50;22.60;;;;;;;-3.70;73.51;100501.27;218781;1276;22591;-68
2022/03/01 02:29:56;;;;;;;47.10;21.70;;;;;;;-3.74;73.58;100499.95;218766;1276;22965;-67
2022/03/01 02:35:00;;;;;;;46.30;22.60;;;;;;;-3.77;73.68;100494.83;218760;1276;22622;-68
2022/03/01 02:40:06;;;;;;;42.10;20.50;;;;;;;-3.81;73.65;100506.42;219024;1276;23021;-68
2022/03/01 02:45:12;;;;;;;44.30;21.00;;;;;;;-3.88;73.62;100507.94;218886;1276;25790;-67
2022/03/01 02:50:16;;;;;;;49.40;22.90;;;;;;;-3.97;73.78;100503.90;218771;1276;22834;-68
2022/03/01 02:55:19;;;;;;;46.40;21.70;;;;;;;-4.01;73.78;100495.23;218864;1276;25566;-68
2022/03/01 03:00:21;;;;;;;44.80;21.40;;;;;;;-4.04;74.08;100487.48;218644;1276;22684;-68
2022/03/01 03:05:28;;;;;;;47.30;21.90;;;;;;;-4.06;74.10;100486.52;218718;1276;25931;-67
2022/03/01 03:10:33;;;;;;;44.80;22.20;;;;;;;-4.08;74.19;100485.00;218873;1276;24504;-67
2022/03/01 03:15:37;;;;;;;44.30;20.60;;;;;;;-4.09;74.30;100482.14;218864;1276;25986;-68
2022/03/01 03:20:41;;;;;;;45.20;19.00;;;;;;;-4.09;74.49;100480.36;218807;1276;26043;-67
2022/03/01 03:25:43;;;;;;;42.30;19.10;;;;;;;-4.09;74.50;100476.52;218877;1276;22822;-68
2022/03/01 03:30:52;;;;;;;43.30;19.90;;;;;;;-4.07;74.52;100479.31;218535;1276;22820;-67
2022/03/01 03:35:57;;;;;;;37.10;18.80;;;;;;;-4.08;74.56;100475.51;218865;1276;22590;-66
2022/03/01 03:41:02;;;;;;;41.30;19.50;;;;;;;-4.09;74.61;100481.09;218674;1276;22657;-67
2022/03/01 03:46:08;;;;;;;43.00;20.90;;;;;;;-4.13;74.49;100477.23;218769;1276;24311;-66
2022/03/01 03:51:10;;;;;;;43.80;19.20;;;;;;;-4.18;74.52;100477.70;218629;1276;22699;-66
2022/03/01 03:56:16;;;;;;;42.10;19.40;;;;;;;-4.24;74.56;100480.55;218833;1276;22691;-68
2022/03/01 04:01:22;;;;;;;38.90;19.00;;;;;;;-4.29;74.64;100481.60;218631;1276;22638;-67
2022/03/01 04:06:51;;;;;;;42.90;19.60;;;;;;;-4.35;74.67;100474.45;218725;1276;22605;-67
2022/03/01 04:11:59;;;;;;;42.00;17.40;;;;;;;-4.38;74.91;100463.27;218649;1276;24264;-66
2022/03/01 04:17:03;;;;;;;40.30;19.40;;;;;;;-4.39;74.94;100455.31;218714;1276;26675;-67
2022/03/01 04:22:11;;;;;;;43.70;19.90;;;;;;;-4.39;75.02;100451.35;218545;1276;25569;-68
2022/03/01 04:27:13;;;;;;;44.10;20.10;;;;;;;-4.40;75.07;100446.20;218722;1276;25584;-67
2022/03/01 04:32:16;;;;;;;46.30;19.70;;;;;;;-4.40;75.08;100439.40;218728;1276;22856;-67
2022/03/01 04:37:19;;;;;;;45.40;20.40;;;;;;;-4.42;74.99;100433.66;218766;1276;22774;-68
2022/03/01 04:42:22;;;;;;;41.70;20.40;;;;;;;-4.43;75.12;100425.38;218948;1276;23974;-68
2022/03/01 04:47:39;;;;;;;44.00;20.00;;;;;;;-4.43;75.21;100427.18;218760;1276;22784;-66
2022/03/01 04:52:49;;;;;;;60.30;26.50;;;;;;;-4.42;75.32;100423.94;219046;1276;22743;-67
2022/03/01 04:58:13;;;;;;;66.20;28.40;;;;;;;-4.43;75.42;100424.83;218895;1276;22576;-68
2022/03/01 05:03:36;;;;;;;65.90;29.20;;;;;;;-4.43;75.28;100423.52;218911;1279;25602;-67
2022/03/01 05:08:47;;;;;;;78.40;30.20;;;;;;;-4.44;75.43;100418.31;218728;1276;22845;-67
2022/03/01 05:14:16;;;;;;;80.50;30.30;;;;;;;-4.43;75.44;100416.52;218912;1276;22609;-66
2022/03/01 05:19:39;;;;;;;72.30;30.80;;;;;;;-4.43;75.44;100419.09;218876;1276;25471;-67
2022/03/01 05:24:41;;;;;;;72.50;29.70;;;;;;;-4.42;75.51;100421.47;219013;1276;25435;-67
2022/03/01 05:29:58;;;;;;;67.00;28.10;;;;;;;-4.43;75.51;100420.67;218788;1276;22794;-67
2022/03/01 05:35:49;;;;;;;68.70;28.50;;;;;;;-4.43;75.54;100417.18;218694;1276;24112;-68
2022/03/01 05:40:54;;;;;;;61.90;28.40;;;;;;;-4.43;75.65;100421.01;218816;1276;24243;-67
2022/03/01 05:46:02;;;;;;;68.80;29.70;;;;;;;-4.42;75.62;100421.77;218959;1276;22711;-67
2022/03/01 05:51:06;;;;;;;71.10;30.10;;;;;;;-4.39;75.78;100422.37;218899;1276;26661;-67
2022/03/01 05:56:17;;;;;;;78.40;29.80;;;;;;;-4.33;75.82;100430.17;218602;1279;25599;-68
2022/03/01 06:01:36;;;;;;;70.70;27.90;;;;;;;-4.26;75.76;100431.91;218845;1276;24814;-67
2022/03/01 06:06:45;;;;;;;61.50;26.70;;;;;;;-4.18;75.85;100435.48;218982;1277;22821;-67
2022/03/01 06:11:59;;;;;;;49.70;20.40;;;;;;;-4.08;75.84;100437.31;218577;1276;22772;-68
2022/03/01 06:17:29;;;;;;;50.70;23.50;;;;;;;-3.94;75.92;100442.06;218771;1276;22667;-68
2022/03/01 06:22:44;;;;;;;63.30;29.00;;;;;;;-3.81;75.98;100446.52;218834;1276;25766;-67
2022/03/01 06:27:54;;;;;;;54.50;27.50;;;;;;;-3.66;75.93;100447.30;218758;1276;26795;-67
2022/03/01 06:32:57;;;;;;;56.00;26.60;;;;;;;-3.50;75.78;100447.25;218894;1276;22559;-68
2022/03/01 06:38:02;;;;;;;50.60;25.40;;;;;;;-3.37;75.74;100445.95;218780;1276;25747;-68
2022/03/01 06:43:26;;;;;;;58.10;27.30;;;;;;;-3.22;75.63;100441.80;218540;1276;24411;-67
2022/03/01 06:48:59;;;;;;;57.70;26.60;;;;;;;-3.04;75.35;100435.77;218620;1276;25632;-67
2022/03/01 06:54:14;;;;;;;63.10;28.40;;;;;;;-2.84;75.31;100429.58;218398;1276;22638;-68
2022/03/01 06:59:26;;;;;;;51.60;25.70;;;;;;;-2.67;75.17;100435.08;218011;1276;23088;-67
2022/03/01 07:04:29;;;;;;;47.80;22.10;;;;;;;-2.50;74.94;100436.84;217721;1277;24263;-69
2022/03/01 07:09:48;;;;;;;49.10;22.70;;;;;;;-2.31;74.78;100439.94;218636;1276;25046;-68
2022/03/01 07:14:57;;;;;;;43.20;22.20;;;;;;;-2.08;74.57;100444.35;218412;1276;22535;-69
2022/03/01 07:20:01;;;;;;;47.30;21.90;;;;;;;-1.85;74.29;100442.76;218617;1276;24246;-69
2022/03/01 07:25:07;;;;;;;39.40;20.50;;;;;;;-1.67;73.98;100448.30;218030;1277;369603;-69
2022/03/01 07:30:10;;;;;;;42.70;22.60;;;;;;;-1.50;73.76;100458.76;218447;1276;22544;-69
2022/03/01 07:35:12;;;;;;;44.30;23.20;;;;;;;-1.33;73.78;100455.50;218386;1276;22614;-69
2022/03/01 07:40:16;;;;;;;46.00;21.00;;;;;;;-1.09;73.50;100459.72;218277;1276;24296;-68
2022/03/01 07:45:23;;;;;;;52.90;25.20;;;;;;;-0.92;72.88;100458.09;218132;1276;22573;-70
2022/03/01 07:50:29;;;;;;;45.30;22.00;;;;;;;-0.81;72.82;100454.64;218075;1277;24255;-69
2022/03/01 07:56:25;;;;;;;42.90;21.90;;;;;;;-0.65;72.60;100451.00;218430;1276;25535;-68
2022/03/01 08:02:02;;;;;;;43.30;21.40;;;;;;;-0.51;72.18;100450.75;225786;1276;24644;-69
2022/03/01 08:07:14;;;;;;;41.40;22.90;;;;;;;-0.32;72.17;100450.34;224257;1276;26694;-69
2022/03/01 08:12:20;;;;;;;42.80;21.50;;;;;;;-0.11;71.62;100446.05;218570;1276;25255;-69
2022/03/01 08:17:22;;;;;;;49.70;23.40;;;;;;;0.12;71.51;100446.88;217194;1276;25591;-68
2022/03/01 08:22:24;;;;;;;45.30;23.70;;;;;;;0.31;71.02;100442.06;217782;1276;22921;-69
2022/03/01 08:27:26;;;;;;;44.80;22.60;;;;;;;0.47;71.01;100431.42;217771;1277;22570;-68
2022/03/01 08:32:29;;;;;;;38.70;20.70;;;;;;;0.61;70.81;100431.73;217091;1276;22525;-68
2022/03/01 08:38:06;;;;;;;47.30;23.60;;;;;;;0.75;70.38;100426.59;220652;1276;22525;-68
2022/03/01 08:43:15;;;;;;;47.60;23.40;;;;;;;0.95;70.37;100422.30;217337;1276;22531;-68
2022/03/01 08:48:18;;;;;;;43.10;22.30;;;;;;;1.18;70.28;100418.71;217259;1276;25756;-68
2022/03/01 08:53:20;;;;;;;35.00;18.00;;;;;;;1.44;70.05;100413.50;217491;1276;22589;-68
2022/03/01 08:58:43;;;;;;;32.70;15.90;;;;;;;1.69;69.44;100409.75;216131;1276;22556;-67
2022/03/01 09:03:46;;;;;;;28.70;13.80;;;;;;;1.91;68.50;100398.98;217228;1276;24194;-68
2022/03/01 09:08:52;;;;;;;24.30;14.60;;;;;;;2.06;67.81;100397.25;217223;1276;25421;-67
2022/03/01 09:13:57;;;;;;;17.00;9.90;;;;;;;2.20;67.08;100386.21;218415;1276;23102;-68
2022/03/01 09:19:01;;;;;;;17.90;9.80;;;;;;;2.29;66.36;100382.05;217759;1276;22590;-68
2022/03/01 09:24:05;;;;;;;12.50;7.00;;;;;;;2.38;65.36;100381.39;217905;1276;22536;-68
2022/03/01 09:29:08;;;;;;;9.60;6.20;;;;;;;2.45;64.98;100378.08;218362;1276;22556;-67
2022/03/01 09:34:13;;;;;;;10.10;6.20;;;;;;;2.59;64.54;100370.67;218290;1276;23076;-67
2022/03/01 09:39:16;;;;;;;13.00;7.00;;;;;;;2.74;63.88;100364.42;218399;1276;22560;-67
2022/03/01 09:44:18;;;;;;;15.10;7.10;;;;;;;2.91;63.30;100358.66;218464;1277;24253;-67
2022/03/01 09:49:22;;;;;;;12.80;6.50;;;;;;;3.09;62.78;100359.73;218800;1276;22620;-67
2022/03/01 09:54:25;;;;;;;11.10;6.50;;;;;;;3.22;62.12;100353.61;218355;1277;22614;-68
2022/03/01 10:00:09;;;;;;;12.90;7.40;;;;;;;3.30;61.14;100350.00;218576;1276;22632;-70
2022/03/01 10:05:48;;;;;;;11.30;6.90;;;;;;;3.35;60.63;100352.52;218335;1276;22547;-69
2022/03/01 10:11:18;;;;;;;14.00;7.20;;;;;;;3.47;59.80;100350.18;218314;1276;22684;-69
2022/03/01 10:16:20;;;;;;;18.00;7.70;;;;;;;3.51;59.04;100337.10;218354;1278;24164;-69
2022/03/01 10:21:26;;;;;;;14.00;8.10;;;;;;;3.57;58.61;100332.65;218290;1277;22638;-69
2022/03/01 10:26:32;;;;;;;12.90;6.70;;;;;;;3.75;58.32;100324.53;218335;1276;22594;-69
2022/03/01 10:31:51;;;;;;;9.60;6.20;;;;;;;3.84;57.02;100309.36;218301;1277;22567;-70
2022/03/01 10:36:53;;;;;;;11.60;6.40;;;;;;;3.90;55.90;100303.59;218273;1277;22567;-70
2022/03/01 10:41:56;;;;;;;13.80;6.00;;;;;;;3.95;55.37;100300.64;219966;1277;22563;-70
2022/03/01 10:47:03;;;;;;;14.50;6.90;;;;;;;3.99;55.23;100298.77;218159;1277;22601;-70
2022/03/01 10:52:09;;;;;;;13.90;7.40;;;;;;;4.06;55.12;100287.20;220136;1277;22577;-70
2022/03/01 10:57:21;;;;;;;11.30;6.70;;;;;;;4.20;54.88;100281.41;218815;1277;22652;-70
2022/03/01 11:02:23;;;;;;;11.50;5.80;;;;;;;4.33;54.37;100272.48;218530;1277;22603;-70
2022/03/01 11:07:29;;;;;;;8.90;5.30;;;;;;;4.37;53.23;100271.97;218581;1277;24270;-70
2022/03/01 11:12:34;;;;;;;9.50;5.00;;;;;;;4.42;52.88;100261.30;218396;1277;22582;-70
2022/03/01 11:17:55;;;;;;;9.00;5.30;;;;;;;4.51;52.14;100261.45;218730;1278;22600;-70
2022/03/01 11:23:03;;;;;;;6.60;4.50;;;;;;;4.48;51.07;100252.45;218563;1278;24750;-70
2022/03/01 11:28:09;;;;;;;7.50;4.00;;;;;;;4.53;50.56;100246.20;218374;1277;22595;-70
2022/03/01 11:33:12;;;;;;;9.40;4.50;;;;;;;4.57;49.33;100240.27;218465;1278;22548;-70
2022/03/01 11:38:19;;;;;;;11.90;5.10;;;;;;;4.58;49.02;100229.23;218390;1276;24236;-69
2022/03/01 11:43:28;;;;;;;8.20;5.00;;;;;;;4.61;49.28;100221.77;218307;1277;22560;-70
2022/03/01 11:48:30;;;;;;;7.90;4.60;;;;;;;4.75;49.47;100215.16;218521;1277;22669;-68
2022/03/01 11:53:41;;;;;;;7.80;4.70;;;;;;;4.86;48.83;100204.93;218269;1277;22694;-68
2022/03/01 11:58:48;;;;;;;7.20;4.20;;;;;;;4.94;48.74;100193.84;218129;1277;24179;-69
2022/03/01 12:03:52;;;;;;;7.60;4.50;;;;;;;5.05;48.49;100184.77;218198;1277;22545;-73
2022/03/01 12:09:08;;;;;;;7.60;3.90;;;;;;;5.13;47.83;100177.41;220246;1277;22591;-70
2022/03/01 12:14:14;;;;;;;7.10;3.60;;;;;;;5.17;47.24;100171.70;220255;1277;22546;-69
2022/03/01 12:19:23;;;;;;;7.30;4.00;;;;;;;5.23;46.79;100165.04;218438;1277;22570;-68
2022/03/01 12:24:28;;;;;;;5.60;3.70;;;;;;;5.29;46.42;100160.44;218701;1277;22533;-70
2022/03/01 12:29:36;;;;;;;8.90;3.80;;;;;;;5.38;45.73;100150.02;218552;1277;22574;-72
2022/03/01 12:34:44;;;;;;;7.20;3.80;;;;;;;5.38;45.39;100136.20;218063;1278;22563;-71
2022/03/01 12:39:49;;;;;;;5.50;3.40;;;;;;;5.38;45.15;100133.02;218126;1277;22707;-69
2022/03/01 12:44:52;;;;;;;6.00;3.40;;;;;;;5.39;44.72;100126.65;218439;1277;25543;-70
2022/03/01 12:50:00;;;;;;;5.20;3.30;;;;;;;5.47;45.40;100117.98;218474;1277;25408;-70
2022/03/01 12:55:04;;;;;;;6.50;3.60;;;;;;;5.55;44.99;100115.45;218119;1277;22552;-70
2022/03/01 13:00:10;;;;;;;8.10;3.80;;;;;;;5.64;44.48;100105.48;218580;1276;25371;-69
2022/03/01 13:05:50;;;;;;;6.40;4.00;;;;;;;5.68;43.67;100098.16;218395;1277;22573;-70
2022/03/01 13:10:53;;;;;;;6.60;3.20;;;;;;;5.67;43.43;100093.17;218588;1276;22585;-69
2022/03/01 13:16:05;;;;;;;7.60;3.80;;;;;;;5.60;42.08;100091.21;218611;1277;23810;-69
2022/03/01 13:21:08;;;;;;;6.70;3.70;;;;;;;5.55;42.15;100081.58;218522;1276;24288;-70
2022/03/01 13:26:11;;;;;;;5.90;3.80;;;;;;;5.52;41.74;100076.28;218370;1276;22710;-70
2022/03/01 13:31:25;;;;;;;7.60;4.20;;;;;;;5.48;42.27;100072.18;218964;1276;24344;-70
2022/03/01 13:36:38;;;;;;;7.60;4.30;;;;;;;5.48;42.46;100064.23;218657;1277;22639;-69
2022/03/01 13:41:44;;;;;;;7.20;4.10;;;;;;;5.49;42.60;100058.66;218698;1276;26438;-69
2022/03/01 13:47:12;;;;;;;9.10;4.70;;;;;;;5.46;42.12;100047.29;218723;1276;22624;-70
2022/03/01 13:52:21;;;;;;;8.50;4.00;;;;;;;5.40;41.99;100039.11;218644;1276;24421;-70
2022/03/01 13:57:28;;;;;;;9.30;4.70;;;;;;;5.33;42.26;100028.31;218495;1277;24241;-70
2022/03/01 14:02:33;;;;;;;8.70;4.30;;;;;;;5.32;42.19;100017.46;218613;1276;22583;-69
2022/03/01 14:07:40;;;;;;;9.30;4.70;;;;;;;5.39;42.49;100014.19;219304;1276;22552;-69
2022/03/01 14:12:43;;;;;;;7.60;4.20;;;;;;;5.42;42.35;100009.19;218496;1277;22580;-70
2022/03/01 14:17:56;;;;;;;7.10;4.10;;;;;;;5.47;42.02;100001.65;218373;1276;22700;-69
2022/03/01 14:22:59;;;;;;;7.00;4.30;;;;;;;5.37;41.65;99990.34;218545;1277;25448;-68
2022/03/01 14:28:09;;;;;;;7.70;3.90;;;;;;;5.29;41.92;99984.30;218600;1276;22582;-69
2022/03/01 14:33:12;;;;;;;;;;;;;;;5.27;41.97;99984.45;218528;1276;25655;-70
2022/03/01 14:38:14;;;;;;;9.50;3.90;;;;;;;5.23;41.67;99978.85;218423;1276;22717;-68
2022/03/01 14:43:26;;;;;;;10.40;3.80;;;;;;;5.14;40.90;99972.38;218241;1277;24340;-70
2022/03/01 14:48:29;;;;;;;5.50;3.20;;;;;;;5.07;41.21;99970.96;218609;1276;22664;-70
2022/03/01 14:53:37;;;;;;;6.90;3.10;;;;;;;4.99;40.73;99969.04;218412;1276;22624;-69
2022/03/01 14:58:47;;;;;;;7.00;3.10;;;;;;;4.92;40.46;99956.95;218241;1276;22578;-70
2022/03/01 15:03:49;;;;;;;5.00;2.90;;;;;;;4.83;40.36;99951.95;218296;1276;24314;-71
2022/03/01 15:08:52;;;;;;;4.60;2.60;;;;;;;4.71;40.05;99943.00;219738;1276;24284;-70
2022/03/01 15:13:57;;;;;;;7.40;3.50;;;;;;;4.60;39.74;99943.86;219503;1277;22544;-69
2022/03/01 15:19:02;;;;;;;6.70;3.00;;;;;;;4.52;40.43;99940.06;218704;1276;24288;-70
2022/03/01 15:24:08;;;;;;;5.80;3.00;;;;;;;4.42;41.30;99942.06;218798;1276;24270;-71
2022/03/01 15:29:14;;;;;;;8.50;3.20;;;;;;;4.30;41.21;99937.52;219098;1276;24693;-70
2022/03/01 15:34:16;;;;;;;8.10;3.40;;;;;;;4.17;41.09;99935.85;219184;1276;24403;-69
2022/03/01 15:39:23;;;;;;;8.80;4.60;;;;;;;4.07;40.96;99931.69;218854;1276;24291;-71
2022/03/01 15:44:27;;;;;;;11.60;5.20;;;;;;;3.92;40.90;99932.70;219988;1276;22569;-71
2022/03/01 15:49:34;;;;;;;9.00;4.30;;;;;;;3.76;41.15;99935.64;219482;1276;22555;-70
2022/03/01 15:54:38;;;;;;;10.00;4.20;;;;;;;3.65;40.79;99936.64;219959;1276;22576;-70
2022/03/01 15:59:40;;;;;;;12.40;6.00;;;;;;;3.54;41.20;99937.08;218890;1276;22554;-71
2022/03/01 16:04:45;;;;;;;10.90;5.90;;;;;;;3.38;41.40;99938.88;218933;1276;22558;-69
2022/03/01 16:09:48;;;;;;;10.10;5.50;;;;;;;3.21;41.87;99936.27;218797;1276;22858;-69
2022/03/01 16:14:51;;;;;;;13.90;5.90;;;;;;;3.03;41.93;99941.13;218774;1276;23802;-70
2022/03/01 16:19:54;;;;;;;14.90;8.20;;;;;;;2.93;42.14;99943.77;218808;1276;23729;-71
2022/03/01 16:25:00;;;;;;;13.80;7.20;;;;;;;2.81;42.56;99943.94;219634;1277;24149;-71
2022/03/01 16:30:02;;;;;;;14.10;6.40;;;;;;;2.60;42.56;99944.77;219587;1276;22578;-71
2022/03/01 16:35:06;;;;;;;14.30;6.20;;;;;;;2.45;42.78;99949.86;219821;1276;25509;-70
2022/03/01 16:40:09;;;;;;;10.80;5.90;;;;;;;2.31;42.60;99950.79;218676;1276;22588;-70
2022/03/01 16:45:11;;;;;;;15.40;6.40;;;;;;;2.16;42.54;99951.00;218831;1276;22637;-70
2022/03/01 16:50:14;;;;;;;16.20;7.20;;;;;;;1.96;42.50;99956.04;218922;1276;22588;-70
2022/03/01 16:55:17;;;;;;;20.80;10.20;;;;;;;1.77;42.78;99959.76;218962;1277;26399;-69
2022/03/01 17:00:25;;;;;;;25.80;10.70;;;;;;;1.67;43.15;99960.59;218708;1276;22527;-70
2022/03/01 17:05:29;;;;;;;28.40;12.50;;;;;;;1.60;43.34;99960.27;219002;1276;25440;-70
2022/03/01 17:10:32;;;;;;;46.00;17.80;;;;;;;1.52;43.05;99968.86;219528;1276;22568;-69
2022/03/01 17:15:34;;;;;;;57.40;21.60;;;;;;;1.49;43.35;99970.38;218774;1276;22730;-71
2022/03/01 17:20:38;;;;;;;51.40;19.30;;;;;;;1.41;43.21;99971.83;219678;1276;22543;-70
2022/03/01 17:25:40;;;;;;;49.80;18.90;;;;;;;1.33;43.35;99973.75;219708;1276;22555;-70
2022/03/01 17:30:45;;;;;;;34.40;14.80;;;;;;;1.23;43.43;99965.83;218777;1276;25255;-70
2022/03/01 17:35:48;;;;;;;35.60;14.80;;;;;;;1.15;43.33;99963.20;219717;1276;22567;-70
2022/03/01 17:40:50;;;;;;;36.50;15.50;;;;;;;1.07;43.43;99962.58;219718;1276;22513;-71
2022/03/01 17:45:55;;;;;;;31.60;14.60;;;;;;;1.02;43.42;99958.89;218805;1276;25464;-71
2022/03/01 17:50:57;;;;;;;33.00;13.80;;;;;;;0.90;43.27;99962.66;219794;1276;22570;-71
2022/03/01 17:56:00;;;;;;;25.00;11.80;;;;;;;0.80;43.56;99967.30;219417;1277;24094;-69
2022/03/01 18:01:03;;;;;;;37.70;16.80;;;;;;;0.76;43.88;99966.31;219570;1277;23029;-71
2022/03/01 18:06:06;;;;;;;49.90;23.70;;;;;;;0.81;44.46;99964.67;218610;1277;22864;-70
2022/03/01 18:11:10;;;;;;;32.50;15.30;;;;;;;0.77;44.18;99962.52;218507;1276;22570;-70
2022/03/01 18:16:20;;;;;;;33.00;14.20;;;;;;;0.69;43.87;99965.02;218686;1276;22580;-71
2022/03/01 18:21:27;;;;;;;31.50;15.40;;;;;;;0.55;43.85;99960.50;218790;1276;22611;-69
2022/03/01 18:26:30;;;;;;;32.60;16.10;;;;;;;0.41;44.23;99962.20;219011;1276;22571;-70
2022/03/01 18:31:32;;;;;;;39.80;16.90;;;;;;;0.21;44.33;99962.46;218815;1276;24319;-70
2022/03/01 18:36:35;;;;;;;40.70;18.00;;;;;;;0.10;44.64;99964.93;218903;1278;24261;-71
2022/03/01 18:41:47;;;;;;;32.50;16.60;;;;;;;-0.02;44.72;99963.61;218801;1276;25477;-70
2022/03/01 18:46:59;;;;;;;34.10;17.60;;;;;;;-0.13;44.89;99962.46;219555;1276;22565;-70
2022/03/01 18:52:03;;;;;;;33.90;16.80;;;;;;;-0.18;45.00;99960.11;219617;1276;22709;-71
2022/03/01 18:57:06;;;;;;;30.00;15.90;;;;;;;-0.27;45.15;99960.64;219875;1276;24251;-72
2022/03/01 19:02:09;;;;;;;33.40;15.40;;;;;;;-0.37;45.36;99958.90;219007;1276;22769;-70
2022/03/01 19:07:18;;;;;;;34.20;16.10;;;;;;;-0.46;45.88;99961.73;219180;1276;25371;-70
2022/03/01 19:12:32;;;;;;;36.90;16.40;;;;;;;-0.55;45.99;99956.34;218849;1275;22950;-71
2022/03/01 19:17:36;;;;;;;38.30;17.20;;;;;;;-0.64;46.23;99952.08;219823;1276;24165;-70
2022/03/01 19:22:39;;;;;;;38.20;17.90;;;;;;;-0.74;46.23;99953.46;219413;1276;529661;-70
2022/03/01 19:27:42;;;;;;;71.10;29.20;;;;;;;-0.84;46.33;99955.58;218840;1276;22886;-69
2022/03/01 19:32:45;;;;;;;69.40;29.60;;;;;;;-0.91;46.43;99957.40;218911;1276;22539;-70
2022/03/01 19:37:48;;;;;;;54.80;24.40;;;;;;;-0.96;46.66;99952.96;218716;1276;22733;-71
2022/03/01 19:42:50;;;;;;;51.20;22.90;;;;;;;-0.99;46.98;99955.27;218887;1276;22547;-70
2022/03/01 19:47:53;;;;;;;56.60;23.00;;;;;;;-1.04;46.90;99953.88;218848;1276;22764;-70
2022/03/01 19:52:58;;;;;;;61.00;24.50;;;;;;;-1.03;47.08;99948.15;218832;1276;22636;-71
2022/03/01 19:58:00;;;;;;;60.70;25.40;;;;;;;-0.99;46.92;99948.80;219797;1276;22583;-70
2022/03/01 20:03:04;;;;;;;58.90;26.10;;;;;;;-0.94;47.24;99953.92;219766;1276;22648;-70
2022/03/01 20:08:08;;;;;;;62.50;24.70;;;;;;;-0.92;47.02;99950.21;219851;1276;22552;-69
2022/03/01 20:13:12;;;;;;;44.10;20.40;;;;;;;-0.90;47.06;99943.33;219505;1276;22657;-71
2022/03/01 20:18:15;;;;;;;40.30;18.60;;;;;;;-0.92;47.26;99940.71;219710;1276;22614;-69
2022/03/01 20:23:18;;;;;;;41.50;17.40;;;;;;;-0.97;47.28;99941.05;218992;1276;25671;-70
2022/03/01 20:28:21;;;;;;;42.10;18.70;;;;;;;-1.00;47.76;99936.24;218869;1276;25630;-71
2022/03/01 20:33:26;;;;;;;40.40;18.20;;;;;;;-1.04;48.06;99933.08;219852;1276;22547;-71
2022/03/01 20:38:28;;;;;;;58.10;22.90;;;;;;;-1.14;48.42;99924.99;219807;1276;26769;-70
2022/03/01 20:43:31;;;;;;;58.80;23.70;;;;;;;-1.26;48.71;99924.27;219529;1276;22773;-71
2022/03/01 20:48:33;;;;;;;50.00;22.20;;;;;;;-1.38;48.99;99920.59;218772;1276;24160;-71
2022/03/01 20:53:40;;;;;;;58.10;24.50;;;;;;;-1.45;49.45;99912.52;218989;1276;25381;-70
2022/03/01 20:58:42;;;;;;;63.40;25.60;;;;;;;-1.46;49.72;99908.61;219071;1276;22585;-71
2022/03/01 21:03:46;;;;;;;50.00;23.90;;;;;;;-1.50;49.96;99905.88;219813;1276;22585;-69
2022/03/01 21:08:48;;;;;;;58.60;26.20;;;;;;;-1.50;50.32;99904.05;219726;1276;23976;-69
2022/03/01 21:13:51;;;;;;;50.20;22.00;;;;;;;-1.51;50.47;99899.42;219830;1276;24290;-71
2022/03/01 21:18:53;;;;;;;53.70;24.10;;;;;;;-1.58;50.77;99896.11;219736;1276;22582;-70
2022/03/01 21:23:56;;;;;;;53.30;23.00;;;;;;;-1.64;50.92;99893.19;218706;1276;24234;-70
2022/03/01 21:28:58;;;;;;;61.40;24.60;;;;;;;-1.66;51.36;99887.29;219002;1276;25612;-71
2022/03/01 21:34:01;;;;;;;51.60;21.90;;;;;;;-1.71;51.55;99881.53;218947;1276;25701;-70
2022/03/01 21:39:04;;;;;;;50.90;22.10;;;;;;;-1.79;51.64;99880.70;219820;1276;22559;-70
2022/03/01 21:44:07;;;;;;;55.20;23.20;;;;;;;-1.81;52.08;99885.72;219675;1276;22802;-70
2022/03/01 21:49:10;;;;;;;56.80;26.30;;;;;;;-1.84;52.18;99878.32;219874;1275;24019;-69
2022/03/01 21:54:13;;;;;;;53.70;24.60;;;;;;;-1.91;52.43;99878.46;218873;1276;22619;-71
2022/03/01 21:59:15;;;;;;;53.40;24.00;;;;;;;-2.01;52.82;99878.95;218782;1276;25029;-70
2022/03/01 22:04:19;;;;;;;62.60;24.80;;;;;;;-2.09;53.34;99879.27;218972;1276;25680;-70
2022/03/01 22:09:22;;;;;;;58.90;25.70;;;;;;;-2.15;53.41;99877.81;218580;1276;22547;-72
2022/03/01 22:14:25;;;;;;;68.80;27.10;;;;;;;-2.27;53.75;99872.10;219745;1276;25851;-69
2022/03/01 22:19:27;;;;;;;68.80;27.20;;;;;;;-2.36;54.10;99870.05;220016;1276;22596;-71
2022/03/01 22:24:35;;;;;;;68.80;28.30;;;;;;;-2.42;54.24;99863.98;219765;1276;22568;-70
2022/03/01 22:29:37;;;;;;;66.60;26.90;;;;;;;-2.47;54.55;99863.70;219634;1276;23123;-70
2022/03/01 22:34:39;;;;;;;64.00;26.80;;;;;;;-2.51;54.79;99856.88;219655;1276;22560;-70
2022/03/01 22:39:42;;;;;;;67.50;27.20;;;;;;;-2.56;54.97;99846.91;219249;1277;22477;-70
2022/03/01 22:44:44;;;;;;;59.70;24.70;;;;;;;-2.62;55.15;99843.71;219716;1276;24040;-70
2022/03/01 22:49:47;;;;;;;60.10;24.90;;;;;;;-2.66;55.46;99833.88;219571;1275;22532;-68
2022/03/01 22:54:50;;;;;;;58.80;25.30;;;;;;;-2.71;55.63;99833.08;218835;1276;24208;-69
2022/03/01 22:59:52;;;;;;;67.10;26.00;;;;;;;-2.76;55.96;99826.57;218637;1276;24231;-69
2022/03/01 23:04:55;;;;;;;68.00;26.80;;;;;;;-2.79;56.20;99821.50;218589;1276;22558;-70
2022/03/01 23:09:59;;;;;;;68.10;28.90;;;;;;;-2.80;56.20;99822.69;218650;1276;22730;-71
2022/03/01 23:15:02;;;;;;;80.70;32.20;;;;;;;-2.84;56.30;99817.02;218856;1276;22631;-70
2022/03/01 23:20:06;;;;;;;79.30;31.80;;;;;;;-2.89;56.57;99815.52;219742;1276;22631;-70
2022/03/01 23:25:10;;;;;;;69.00;27.80;;;;;;;-2.94;56.68;99815.36;219749;1276;25577;-70
2022/03/01 23:30:12;;;;;;;69.10;27.10;;;;;;;-2.95;57.04;99805.34;219831;1276;24208;-71